General Aviation Weather

Text Reports

Enter one or more of the following location identifiers separated by a space:

Zip Code, Four-Character ICAO or Three-Character IATA airport codes.

METAR - Aviation Routine Weather Report
KSET - St. Charles, Missouri
Updated at 12:37 PM GMT on December 27, 2014 (6:37 AM CST):
SPECI KSET 271237Z AUTO 17007KT 10SM FEW020 OVC030 09/08 A3005 RMK AO2 T00890083
TAF - Terminal Area Forecast
KSET - St. Charles, Missouri
Updated at 12:37 PM GMT on December 27, 2014 (6:37 AM CST):
No TAF is currently available for this location.
Decoded:
No decoded TAF is available.
PIREP - Pilot Weather Report
KSET - St. Charles, Missouri
Updated at 12:37 PM GMT on December 27, 2014 (6:37 AM CST):
No PIREP is currently available for this location.
AIRMET - Airmens Meteorological Information
KSET - St. Charles, Missouri
Updated at 12:37 PM GMT on December 27, 2014 (6:37 AM CST):
No AIRMET is currently available for this location.
SIGMET - Significant Meteorological Information
KSET - St. Charles, Missouri
Updated at 12:37 PM GMT on December 27, 2014 (6:37 AM CST):
No SIGMET is currently available for this location.
NOTAM - Notice to Airmen
KSET - St. Charles, Missouri
Updated at 12:37 PM GMT on December 27, 2014 (6:37 AM CST):
No NOTAM is currently available for this location.
Forecast Area
KSET - St. Charles, Missouri
Updated at 12:37 PM GMT on December 27, 2014 (6:37 AM CST):
No NOTAM is currently available for this location.
Aviation Weather Maps